Time;durP1;ratioP1;P1;durP2;ratioP2;P2;SDS_P1;SDS_P2;PMS_P1;PMS_P2;Temp;Humidity;BMP_temperature;BMP_pressure;BME280_temperature;BME280_humidity;BME280_pressure;Samples;Min_cycle;Max_cycle;Signal;HPM_P1;HPM_P2
2022/01/16 00:04:12;;;;;;;0.60;0.60;;;2.30;99.90;;;;;;4992087;28;20435;-75
2022/01/16 00:06:42;;;;;;;1.70;1.60;;;2.30;99.90;;;;;;4992049;28;20439;-75
2022/01/16 00:09:08;;;;;;;0.57;0.50;;;2.30;99.90;;;;;;4992086;28;20173;-75
2022/01/16 00:11:35;;;;;;;0.50;0.50;;;2.40;99.90;;;;;;4992074;28;21260;-75
2022/01/16 00:14:02;;;;;;;1.17;1.17;;;2.30;99.90;;;;;;4991732;28;20510;-74
2022/01/16 00:16:28;;;;;;;0.60;0.60;;;2.30;99.90;;;;;;4973143;28;20444;-75
2022/01/16 00:18:54;;;;;;;2.50;2.40;;;2.20;99.90;;;;;;4991843;28;20513;-74
2022/01/16 00:21:22;;;;;;;0.60;0.60;;;2.30;99.90;;;;;;4991854;28;20515;-75
2022/01/16 00:23:48;;;;;;;0.60;0.50;;;2.30;99.90;;;;;;4991442;28;20169;-75
2022/01/16 00:26:14;;;;;;;0.57;0.50;;;2.30;99.90;;;;;;4991763;28;20513;-75
2022/01/16 00:28:40;;;;;;;0.57;0.50;;;2.40;99.90;;;;;;4974402;28;20439;-75
2022/01/16 00:31:05;;;;;;;2.70;1.33;;;2.40;99.90;;;;;;4991867;28;20420;-74
2022/01/16 00:33:31;;;;;;;0.60;0.60;;;2.40;99.90;;;;;;4969482;28;20232;-75
2022/01/16 00:35:56;;;;;;;1.80;0.73;;;2.50;99.90;;;;;;4985933;28;20561;-74
2022/01/16 00:38:22;;;;;;;0.60;0.60;;;2.50;99.90;;;;;;4991545;28;20175;-75
2022/01/16 00:40:48;;;;;;;1.00;1.00;;;2.50;99.90;;;;;;4991631;28;20208;-75
2022/01/16 00:43:14;;;;;;;0.60;0.50;;;2.50;99.90;;;;;;4986817;28;20165;-74
2022/01/16 00:45:40;;;;;;;1.23;1.23;;;2.50;99.90;;;;;;4983605;28;20662;-75
2022/01/16 00:48:06;;;;;;;0.60;0.50;;;2.50;99.90;;;;;;4991501;28;20440;-74
2022/01/16 00:50:34;;;;;;;1.10;1.00;;;2.50;99.90;;;;;;4990448;28;20271;-75
2022/01/16 00:53:02;;;;;;;3.37;0.87;;;2.50;99.90;;;;;;4991240;28;20434;-75
2022/01/16 00:55:28;;;;;;;0.60;0.50;;;2.50;99.90;;;;;;4974099;28;20921;-75
2022/01/16 00:57:54;;;;;;;0.57;0.50;;;2.50;99.90;;;;;;4990604;28;20503;-75
2022/01/16 01:00:20;;;;;;;0.93;0.93;;;2.50;99.90;;;;;;4988267;28;20563;-75
2022/01/16 01:02:46;;;;;;;0.70;0.70;;;2.60;99.90;;;;;;4993739;28;20175;-74
2022/01/16 01:05:12;;;;;;;0.70;0.70;;;2.60;99.90;;;;;;4995280;28;20750;-75
2022/01/16 01:07:40;;;;;;;0.57;0.50;;;2.70;99.90;;;;;;4994618;28;20192;-75
2022/01/16 01:10:07;;;;;;;1.03;0.90;;;2.80;99.90;;;;;;4995603;28;20510;-75
2022/01/16 01:12:51;;;;;;;0.57;0.50;;;2.80;99.90;;;;;;4994724;28;20431;-75
2022/01/16 01:15:22;;;;;;;0.60;0.53;;;2.80;99.90;;;;;;4994896;28;20432;-75
2022/01/16 01:17:49;;;;;;;1.33;1.23;;;2.90;99.90;;;;;;4991742;28;20495;-75
2022/01/16 01:20:17;;;;;;;0.90;0.90;;;2.70;99.90;;;;;;4994724;28;20497;-74
2022/01/16 01:22:45;;;;;;;0.60;0.60;;;2.80;99.90;;;;;;4978754;28;20427;-75
2022/01/16 01:25:14;;;;;;;0.57;0.50;;;2.80;99.90;;;;;;4993067;28;20456;-75
2022/01/16 01:27:41;;;;;;;0.60;0.50;;;2.70;99.90;;;;;;4992086;28;20517;-75
2022/01/16 01:30:09;;;;;;;0.60;0.50;;;2.80;99.90;;;;;;4991873;28;20526;-75
2022/01/16 01:32:37;;;;;;;2.60;1.03;;;2.80;99.90;;;;;;4992780;28;20834;-75
2022/01/16 01:35:05;;;;;;;0.80;0.80;;;2.70;99.90;;;;;;4994680;28;20471;-75
2022/01/16 01:37:30;;;;;;;1.33;1.23;;;2.70;99.90;;;;;;4994661;28;20964;-75
2022/01/16 01:39:56;;;;;;;0.60;0.50;;;2.70;99.90;;;;;;4993851;28;20474;-75
2022/01/16 01:42:24;;;;;;;0.60;0.60;;;2.80;99.90;;;;;;4993914;28;20710;-75
2022/01/16 01:53:01;;;;;;;0.60;0.50;;;2.60;99.90;;;;;;4992821;28;20534;-75
2022/01/16 01:55:27;;;;;;;1.17;0.80;;;2.60;99.90;;;;;;4992826;28;20895;-75
2022/01/16 01:57:53;;;;;;;0.60;0.50;;;2.70;99.90;;;;;;4993744;28;20650;-75
2022/01/16 02:00:19;;;;;;;3.30;3.10;;;2.70;99.90;;;;;;4992141;28;20617;-75
2022/01/16 02:03:09;;;;;;;0.60;0.50;;;2.70;99.90;;;;;;4991818;28;20637;-75
2022/01/16 02:05:34;;;;;;;0.87;0.87;;;2.70;99.90;;;;;;4993497;28;20430;-74
2022/01/16 02:08:05;;;;;;;1.20;0.93;;;2.70;99.90;;;;;;4992345;28;20439;-75
2022/01/16 02:10:32;;;;;;;1.03;1.03;;;2.70;99.90;;;;;;4990952;28;20177;-75
2022/01/16 02:13:03;;;;;;;3.80;1.47;;;2.70;99.90;;;;;;4992176;28;20439;-74
2022/01/16 02:31:43;;;;;;;0.57;0.53;;;2.70;99.90;;;;;;4992712;28;20448;-75
2022/01/16 02:36:56;;;;;;;1.03;1.03;;;2.70;99.90;;;;;;4993117;28;20524;-75
2022/01/16 02:39:26;;;;;;;0.57;0.50;;;2.70;99.90;;;;;;4991653;28;20517;-75
2022/01/16 02:41:53;;;;;;;0.60;0.60;;;2.70;99.90;;;;;;4992525;28;20434;-75
2022/01/16 02:46:46;;;;;;;2.00;1.90;;;2.70;99.90;;;;;;4991797;28;20471;-75
2022/01/16 02:49:27;;;;;;;0.97;0.97;;;2.70;99.90;;;;;;4993405;28;20424;-75
2022/01/16 02:52:00;;;;;;;0.63;0.63;;;2.70;99.90;;;;;;4978347;28;20917;-75
2022/01/16 02:54:27;;;;;;;0.73;0.73;;;2.60;99.90;;;;;;4991884;28;20463;-75
2022/01/16 02:56:53;;;;;;;1.50;1.40;;;2.60;99.90;;;;;;4990878;28;20463;-75
2022/01/16 02:59:20;;;;;;;3.83;1.00;;;2.60;99.90;;;;;;4990886;28;20466;-75
2022/01/16 03:01:45;;;;;;;0.60;0.50;;;2.60;99.90;;;;;;4991077;28;20559;-75
2022/01/16 03:04:11;;;;;;;1.43;1.17;;;2.60;99.90;;;;;;4990478;28;20527;-75
2022/01/16 03:06:37;;;;;;;3.13;3.03;;;2.60;99.90;;;;;;4990956;28;20658;-75
2022/01/16 03:09:08;;;;;;;0.60;0.50;;;2.50;99.90;;;;;;4971774;28;20184;-75
2022/01/16 03:11:41;;;;;;;0.60;0.50;;;2.70;99.90;;;;;;4992190;28;20169;-75
2022/01/16 03:14:12;;;;;;;0.60;0.57;;;2.70;99.90;;;;;;4992774;28;20431;-75
2022/01/16 03:16:41;;;;;;;2.20;1.47;;;2.70;99.90;;;;;;4990794;28;20557;-75
2022/01/16 03:21:54;;;;;;;0.73;0.73;;;2.80;99.90;;;;;;4990371;28;20421;-75
2022/01/16 03:24:37;;;;;;;0.83;0.83;;;2.90;99.90;;;;;;4986996;28;20504;-75
2022/01/16 03:27:09;;;;;;;0.90;0.90;;;2.80;99.90;;;;;;4988030;28;20441;-75
2022/01/16 03:29:35;;;;;;;0.60;0.53;;;2.90;99.90;;;;;;4992471;28;20424;-75
2022/01/16 03:32:05;;;;;;;1.10;1.10;;;2.90;99.90;;;;;;4992697;28;20486;-75
2022/01/16 03:34:30;;;;;;;1.07;1.07;;;3.00;99.90;;;;;;4992512;28;21004;-75
2022/01/16 03:36:56;;;;;;;0.70;0.70;;;3.10;99.90;;;;;;4990248;28;20538;-75
2022/01/16 03:39:21;;;;;;;0.60;0.60;;;3.10;99.90;;;;;;4975073;28;20323;-75
2022/01/16 03:41:47;;;;;;;0.90;0.90;;;3.10;99.90;;;;;;4992416;28;20173;-75
2022/01/16 03:44:13;;;;;;;0.67;0.67;;;3.10;99.90;;;;;;4992247;28;20172;-75
2022/01/16 03:46:42;;;;;;;2.30;2.20;;;3.20;99.90;;;;;;4991999;28;20212;-75
2022/01/16 03:49:20;;;;;;;1.37;0.97;;;3.20;99.90;;;;;;4992547;28;20181;-75
2022/01/16 03:51:48;;;;;;;0.93;0.90;;;3.30;99.90;;;;;;4991545;28;20420;-75
2022/01/16 03:54:16;;;;;;;0.93;0.93;;;3.30;99.90;;;;;;4991198;28;20441;-75
2022/01/16 03:56:42;;;;;;;1.57;1.47;;;3.40;99.90;;;;;;4974690;28;20448;-75
2022/01/16 03:59:08;;;;;;;1.33;1.23;;;3.40;99.90;;;;;;4992423;28;20814;-75
2022/01/16 04:01:33;;;;;;;0.60;0.60;;;3.40;99.90;;;;;;4992331;28;20451;-75
2022/01/16 04:03:59;;;;;;;0.60;0.50;;;3.30;99.90;;;;;;4991859;28;20718;-75
2022/01/16 04:06:25;;;;;;;0.60;0.60;;;3.30;99.90;;;;;;4991810;28;20227;-75
2022/01/16 04:08:55;;;;;;;0.80;0.80;;;3.20;99.90;;;;;;4992436;28;20177;-75
2022/01/16 04:11:27;;;;;;;0.60;0.50;;;3.10;99.90;;;;;;4992076;28;20420;-75
2022/01/16 04:14:01;;;;;;;1.47;1.33;;;3.00;99.90;;;;;;4991867;28;20797;-74
2022/01/16 04:16:27;;;;;;;0.70;0.70;;;3.10;99.90;;;;;;4992255;28;20443;-75
2022/01/16 04:18:53;;;;;;;0.60;0.60;;;3.10;99.90;;;;;;4991313;28;20420;-75
2022/01/16 04:21:19;;;;;;;0.60;0.60;;;3.10;99.90;;;;;;4992089;28;20231;-75
2022/01/16 04:23:46;;;;;;;3.80;2.30;;;3.00;99.90;;;;;;4991756;28;20200;-75
2022/01/16 04:26:12;;;;;;;0.77;0.77;;;3.10;99.90;;;;;;4992191;28;21017;-75
2022/01/16 04:28:37;;;;;;;0.60;0.57;;;3.00;99.90;;;;;;4992081;28;20504;-75
2022/01/16 04:31:03;;;;;;;1.30;1.20;;;2.90;99.90;;;;;;4974750;28;20516;-75
2022/01/16 04:33:29;;;;;;;0.60;0.53;;;2.90;99.90;;;;;;4991330;28;20212;-74
2022/01/16 04:35:55;;;;;;;0.70;0.70;;;2.90;99.90;;;;;;4991971;28;20440;-75
2022/01/16 04:38:21;;;;;;;0.80;0.80;;;2.90;99.90;;;;;;4995071;28;20935;-75
2022/01/16 04:43:47;;;;;;;5.70;1.47;;;2.90;99.90;;;;;;4995589;28;20458;-75
2022/01/16 04:43:47;;;;;;;1.30;1.00;;;3.00;99.90;;;;;;4995374;28;20660;-75
2022/01/16 04:46:24;;;;;;;0.60;0.50;;;3.00;99.90;;;;;;4995232;28;20825;-75
2022/01/16 04:48:50;;;;;;;0.60;0.50;;;3.00;99.90;;;;;;4988631;28;20766;-75
2022/01/16 04:51:16;;;;;;;0.60;0.50;;;3.10;99.90;;;;;;4995550;28;20967;-75
2022/01/16 04:53:42;;;;;;;0.60;0.57;;;3.10;99.90;;;;;;4995003;28;20423;-75
2022/01/16 04:56:09;;;;;;;1.03;1.03;;;3.10;99.90;;;;;;4995327;28;20435;-75
2022/01/16 04:58:36;;;;;;;0.60;0.50;;;3.10;99.90;;;;;;4995293;28;20420;-75
2022/01/16 05:01:03;;;;;;;1.30;1.20;;;3.10;99.90;;;;;;4994584;28;20587;-75
2022/01/16 05:03:29;;;;;;;0.87;0.87;;;3.00;99.90;;;;;;4994928;28;20422;-75
2022/01/16 05:05:55;;;;;;;1.00;1.00;;;3.00;99.90;;;;;;4994039;28;20444;-75
2022/01/16 05:08:21;;;;;;;4.30;2.67;;;3.10;99.90;;;;;;4977763;28;20774;-75
2022/01/16 05:10:47;;;;;;;1.03;1.03;;;3.10;99.90;;;;;;4995186;28;20450;-75
2022/01/16 05:18:33;;;;;;;0.67;0.67;;;3.00;99.90;;;;;;4995916;28;20430;-75
2022/01/16 05:20:58;;;;;;;1.53;1.43;;;2.90;99.90;;;;;;4995632;28;20976;-75
2022/01/16 05:23:24;;;;;;;13.73;1.63;;;3.00;99.90;;;;;;4995495;28;20587;-75
2022/01/16 05:25:49;;;;;;;0.70;0.70;;;2.90;99.90;;;;;;4995733;28;20196;-75
2022/01/16 05:28:15;;;;;;;0.60;0.50;;;2.90;99.90;;;;;;4994534;28;20195;-75
2022/01/16 05:30:41;;;;;;;0.60;0.50;;;2.90;99.90;;;;;;4995198;28;20244;-75
2022/01/16 05:33:08;;;;;;;1.53;1.13;;;2.80;99.90;;;;;;4995556;28;20238;-75
2022/01/16 05:35:33;;;;;;;0.80;0.80;;;2.80;99.90;;;;;;4995589;28;20180;-75
2022/01/16 05:37:59;;;;;;;2.70;2.60;;;2.80;99.90;;;;;;4995904;28;20428;-75
2022/01/16 05:40:24;;;;;;;1.00;1.00;;;2.90;99.90;;;;;;4995571;28;20200;-75
2022/01/16 05:42:50;;;;;;;2.63;1.33;;;2.90;99.90;;;;;;4994490;28;20180;-75
2022/01/16 05:45:15;;;;;;;1.23;1.23;;;2.80;99.90;;;;;;4977380;28;20663;-74
2022/01/16 05:47:41;;;;;;;0.70;0.70;;;2.90;99.90;;;;;;4993916;28;20212;-74
2022/01/16 05:50:07;;;;;;;1.13;1.10;;;2.90;99.90;;;;;;4994391;28;20597;-74
2022/01/16 05:52:32;;;;;;;1.23;1.23;;;2.80;99.90;;;;;;4994447;28;20177;-75
2022/01/16 05:54:58;;;;;;;0.60;0.50;;;2.90;99.90;;;;;;4994031;28;20565;-75
2022/01/16 05:57:23;;;;;;;1.10;1.10;;;3.00;99.90;;;;;;4990246;28;20241;-74
2022/01/16 05:59:49;;;;;;;0.60;0.50;;;2.90;99.90;;;;;;4994747;28;20204;-75
2022/01/16 06:02:15;;;;;;;0.70;0.70;;;2.90;99.90;;;;;;4995536;28;20176;-75
2022/01/16 06:04:40;;;;;;;2.00;1.90;;;3.00;99.90;;;;;;4995325;28;20202;-75
2022/01/16 06:07:06;;;;;;;0.60;0.60;;;3.00;99.90;;;;;;4994925;28;20450;-74
2022/01/16 06:09:32;;;;;;;0.70;0.70;;;3.00;99.90;;;;;;4993943;28;20557;-74
2022/01/16 06:11:59;;;;;;;0.60;0.60;;;3.00;99.90;;;;;;4986498;28;20257;-74
2022/01/16 06:14:25;;;;;;;1.23;1.23;;;3.00;99.90;;;;;;4991310;28;20430;-73
2022/01/16 06:16:51;;;;;;;0.60;0.50;;;3.10;99.90;;;;;;4993275;28;20510;-74
2022/01/16 06:19:18;;;;;;;9.00;1.47;;;3.00;99.90;;;;;;4993897;28;20912;-74
2022/01/16 06:21:44;;;;;;;1.83;1.53;;;3.10;99.90;;;;;;4993907;28;20836;-74
2022/01/16 06:24:09;;;;;;;3.87;3.57;;;3.10;99.90;;;;;;4993324;28;20420;-74
2022/01/16 06:26:35;;;;;;;0.60;0.60;;;3.10;99.90;;;;;;4993021;28;20440;-74
2022/01/16 06:29:00;;;;;;;0.60;0.50;;;3.10;99.90;;;;;;4977588;28;20227;-75
2022/01/16 06:31:26;;;;;;;4.37;2.23;;;3.10;99.90;;;;;;4993663;28;20589;-75
2022/01/16 06:33:52;;;;;;;2.33;2.23;;;3.10;99.90;;;;;;4993413;28;20712;-75
2022/01/16 06:36:17;;;;;;;0.63;0.63;;;3.10;99.90;;;;;;4993282;28;20443;-74
2022/01/16 06:38:43;;;;;;;0.63;0.63;;;3.00;99.90;;;;;;4986061;28;20704;-74
2022/01/16 06:41:09;;;;;;;0.67;0.67;;;3.00;99.90;;;;;;4993444;28;20176;-74
2022/01/16 06:43:35;;;;;;;1.83;1.73;;;3.10;99.90;;;;;;4993063;28;20176;-74
2022/01/16 06:46:01;;;;;;;1.53;1.43;;;3.20;99.90;;;;;;4993229;28;20813;-74
2022/01/16 06:48:26;;;;;;;0.60;0.60;;;3.30;99.90;;;;;;4993364;28;20546;-74
2022/01/16 06:50:52;;;;;;;2.83;2.23;;;3.30;99.90;;;;;;4992741;28;20596;-75
2022/01/16 06:53:18;;;;;;;0.80;0.80;;;3.30;99.90;;;;;;4992987;28;20177;-75
2022/01/16 06:55:43;;;;;;;5.37;1.73;;;3.40;99.90;;;;;;4993823;28;20436;-75
2022/01/16 06:58:09;;;;;;;2.90;1.33;;;3.40;99.90;;;;;;4989854;28;20232;-74
2022/01/16 07:00:35;;;;;;;6.93;2.20;;;3.40;99.90;;;;;;4990956;28;20204;-74
2022/01/16 07:03:00;;;;;;;1.70;1.60;;;3.50;99.90;;;;;;4993292;28;20176;-75
2022/01/16 07:05:26;;;;;;;3.23;2.50;;;3.50;99.90;;;;;;4993630;28;20193;-75
2022/01/16 07:07:51;;;;;;;0.60;0.50;;;3.60;99.90;;;;;;4991948;28;20224;-75
2022/01/16 07:10:17;;;;;;;1.10;1.00;;;3.60;99.90;;;;;;4989800;28;20181;-75
2022/01/16 07:12:43;;;;;;;0.60;0.57;;;3.70;99.90;;;;;;4992700;28;20235;-75
2022/01/16 07:15:09;;;;;;;2.40;2.30;;;3.70;99.90;;;;;;4992515;28;20702;-75
2022/01/16 07:17:35;;;;;;;1.77;1.27;;;3.70;99.90;;;;;;4990760;28;20205;-75
2022/01/16 07:20:02;;;;;;;2.60;2.50;;;3.80;99.90;;;;;;4987056;28;20575;-75
2022/01/16 07:22:28;;;;;;;3.90;2.73;;;3.80;99.90;;;;;;4992728;28;20208;-74
2022/01/16 07:24:53;;;;;;;2.20;1.90;;;3.70;99.90;;;;;;4992456;28;20462;-75
2022/01/16 07:27:19;;;;;;;4.03;2.97;;;3.80;99.90;;;;;;4992296;28;20197;-74
2022/01/16 07:29:45;;;;;;;2.73;2.53;;;3.80;99.90;;;;;;4992810;28;20263;-74
2022/01/16 07:32:11;;;;;;;0.80;0.80;;;3.80;99.90;;;;;;4991953;28;21114;-74
2022/01/16 07:34:37;;;;;;;1.47;1.20;;;3.90;99.90;;;;;;4985298;28;20504;-74
2022/01/16 07:37:03;;;;;;;3.27;3.07;;;4.00;99.90;;;;;;4992216;28;20196;-74
2022/01/16 07:39:29;;;;;;;1.07;1.07;;;4.00;99.90;;;;;;4992102;28;20207;-74
2022/01/16 07:41:55;;;;;;;2.03;1.93;;;4.00;99.90;;;;;;4992628;28;20563;-73
2022/01/16 07:44:20;;;;;;;1.73;0.93;;;4.00;99.90;;;;;;4992883;28;20428;-74
2022/01/16 07:46:46;;;;;;;0.77;0.77;;;4.00;99.90;;;;;;4992900;28;20200;-74
2022/01/16 07:49:11;;;;;;;0.70;0.70;;;4.00;99.90;;;;;;4993985;28;20191;-74
2022/01/16 07:51:37;;;;;;;4.40;1.33;;;4.00;99.90;;;;;;4992806;28;20208;-75
2022/01/16 07:54:02;;;;;;;0.97;0.97;;;4.00;99.90;;;;;;4993403;28;20191;-75
2022/01/16 07:56:28;;;;;;;2.20;2.10;;;4.00;99.90;;;;;;4976216;28;20251;-75
2022/01/16 07:58:54;;;;;;;2.30;1.57;;;4.10;99.90;;;;;;4993510;28;20180;-75
2022/01/16 08:01:19;;;;;;;0.60;0.60;;;4.10;99.90;;;;;;4994106;28;20173;-75
2022/01/16 08:03:45;;;;;;;1.80;1.70;;;4.10;99.90;;;;;;4976284;28;20195;-75
2022/01/16 08:06:12;;;;;;;1.57;1.20;;;4.10;99.90;;;;;;4993243;28;20275;-74
2022/01/16 08:08:38;;;;;;;1.03;0.97;;;4.10;99.90;;;;;;4992022;28;20689;-74
2022/01/16 08:11:04;;;;;;;1.03;0.83;;;4.10;99.90;;;;;;4975952;28;20428;-74
2022/01/16 08:13:29;;;;;;;0.90;0.90;;;4.10;99.90;;;;;;4995717;28;20204;-73
2022/01/16 08:15:55;;;;;;;0.90;0.90;;;4.20;99.90;;;;;;4995868;28;20608;-74
2022/01/16 08:18:20;;;;;;;2.17;2.07;;;4.20;99.90;;;;;;4996209;28;20177;-74
2022/01/16 08:20:46;;;;;;;1.20;1.10;;;4.20;99.90;;;;;;4989742;28;20212;-74
2022/01/16 08:23:11;;;;;;;3.70;2.83;;;4.20;99.90;;;;;;4995603;28;20181;-74
2022/01/16 08:25:37;;;;;;;1.10;1.10;;;4.30;99.90;;;;;;4995632;28;20263;-74
2022/01/16 08:28:03;;;;;;;0.80;0.80;;;4.30;99.90;;;;;;4995823;28;20187;-74
2022/01/16 08:30:28;;;;;;;0.97;0.97;;;4.20;99.90;;;;;;4995883;28;20630;-74
2022/01/16 08:32:54;;;;;;;3.13;2.93;;;4.30;99.90;;;;;;4991462;28;20177;-73
2022/01/16 08:35:20;;;;;;;3.70;1.93;;;4.30;99.90;;;;;;4995384;28;20181;-73
2022/01/16 08:37:46;;;;;;;0.60;0.50;;;4.40;99.90;;;;;;4995887;28;20650;-73
2022/01/16 08:40:12;;;;;;;2.00;1.10;;;4.40;99.90;;;;;;4994650;28;20506;-74
2022/01/16 08:42:40;;;;;;;2.57;2.37;;;4.40;99.90;;;;;;4995892;28;20183;-73
2022/01/16 08:45:06;;;;;;;0.60;0.60;;;4.40;99.90;;;;;;4990181;28;20768;-74
2022/01/16 08:47:32;;;;;;;2.60;1.70;;;4.50;99.90;;;;;;4985958;28;20463;-74
2022/01/16 08:49:58;;;;;;;1.50;1.40;;;4.50;99.90;;;;;;4995613;28;20439;-74
2022/01/16 08:52:26;;;;;;;4.37;2.73;;;4.50;99.90;;;;;;4995438;28;20268;-74
2022/01/16 08:54:52;;;;;;;0.63;0.60;;;4.50;99.90;;;;;;4996489;28;20486;-74
2022/01/16 08:57:17;;;;;;;1.03;1.03;;;4.60;99.90;;;;;;4997473;28;20452;-75
2022/01/16 08:59:43;;;;;;;1.40;1.30;;;4.60;99.90;;;;;;4996546;28;20784;-74
2022/01/16 09:02:09;;;;;;;1.87;1.80;;;4.60;99.90;;;;;;4997422;28;20260;-75
2022/01/16 09:04:34;;;;;;;0.93;0.93;;;4.70;99.90;;;;;;4997117;28;20169;-74
2022/01/16 09:07:00;;;;;;;1.67;1.57;;;4.70;99.90;;;;;;4997793;28;20608;-74
2022/01/16 09:09:26;;;;;;;2.00;1.23;;;4.60;99.90;;;;;;4995877;28;20169;-75
2022/01/16 09:11:51;;;;;;;1.40;1.30;;;4.70;99.90;;;;;;4995504;28;20183;-75
2022/01/16 09:14:17;;;;;;;3.43;1.57;;;4.70;99.90;;;;;;4994666;28;20668;-75
2022/01/16 09:16:42;;;;;;;1.70;1.60;;;4.80;99.90;;;;;;4995037;28;20220;-75
2022/01/16 09:19:08;;;;;;;2.77;2.67;;;4.70;99.90;;;;;;4995227;28;20207;-74
2022/01/16 09:21:34;;;;;;;1.60;1.50;;;4.80;99.90;;;;;;4994699;28;20169;-74
2022/01/16 09:23:59;;;;;;;1.57;1.47;;;4.80;99.90;;;;;;4994105;28;20173;-74
2022/01/16 09:26:26;;;;;;;4.17;3.43;;;4.80;99.90;;;;;;4994635;28;20451;-74
2022/01/16 09:28:53;;;;;;;2.57;2.00;;;4.80;99.90;;;;;;4993526;28;20169;-74
2022/01/16 09:31:18;;;;;;;1.53;1.43;;;4.80;99.90;;;;;;4983427;28;20426;-74
2022/01/16 09:33:44;;;;;;;0.70;0.70;;;4.80;99.90;;;;;;4994519;28;20524;-73
2022/01/16 09:36:10;;;;;;;3.07;1.50;;;4.80;99.90;;;;;;4994539;28;20689;-74
2022/01/16 09:38:39;;;;;;;4.00;1.07;;;4.80;99.90;;;;;;4986504;28;20631;-74
2022/01/16 09:41:06;;;;;;;18.50;2.40;;;4.90;99.90;;;;;;4994575;28;20204;-73
2022/01/16 09:43:32;;;;;;;2.20;0.90;;;5.00;99.90;;;;;;4994259;28;20512;-74
2022/01/16 09:45:58;;;;;;;1.07;0.97;;;5.00;99.90;;;;;;4989781;28;20459;-74
2022/01/16 09:48:24;;;;;;;1.20;1.20;;;5.00;99.90;;;;;;4992051;28;20435;-75
2022/01/16 09:50:50;;;;;;;4.37;4.07;;;5.10;99.90;;;;;;4994524;28;20424;-75
2022/01/16 09:53:15;;;;;;;3.07;2.87;;;5.10;99.90;;;;;;4994329;28;20187;-74
2022/01/16 09:55:42;;;;;;;1.33;1.23;;;5.10;99.90;;;;;;4976954;28;20543;-75
2022/01/16 09:58:07;;;;;;;2.00;1.90;;;5.20;99.90;;;;;;4995412;28;20243;-75
2022/01/16 10:00:33;;;;;;;2.10;2.00;;;5.30;99.90;;;;;;4996246;28;20452;-75
2022/01/16 10:02:58;;;;;;;1.60;1.50;;;5.40;99.90;;;;;;4986448;28;20181;-74
2022/01/16 10:05:32;;;;;;;2.13;1.60;;;5.50;99.90;;;;;;4991478;28;20180;-75
2022/01/16 10:08:00;;;;;;;2.73;1.90;;;5.50;99.90;;;;;;4993989;28;20192;-74
2022/01/16 10:10:28;;;;;;;1.20;1.10;;;5.70;99.90;;;;;;4993717;28;20431;-75
2022/01/16 10:13:03;;;;;;;3.00;2.77;;;5.70;99.90;;;;;;4993757;28;20421;-75
2022/01/16 10:15:28;;;;;;;1.57;1.47;;;5.80;99.90;;;;;;4993299;28;20431;-75
2022/01/16 10:17:56;;;;;;;1.50;1.23;;;5.90;99.90;;;;;;4993572;28;20797;-74
2022/01/16 10:20:23;;;;;;;1.63;1.53;;;5.90;99.90;;;;;;4993817;28;20188;-74
2022/01/16 10:22:58;;;;;;;1.73;1.63;;;5.90;99.90;;;;;;4994572;28;20424;-75
2022/01/16 10:25:45;;;;;;;0.80;0.80;;;5.90;99.90;;;;;;4979497;28;20430;-75
2022/01/16 10:28:22;;;;;;;1.43;1.23;;;6.00;99.90;;;;;;4996793;28;20439;-75
2022/01/16 10:30:58;;;;;;;1.10;1.00;;;6.00;99.90;;;;;;4996066;28;20433;-75
2022/01/16 10:33:26;;;;;;;0.60;0.60;;;6.20;99.90;;;;;;4990027;28;20439;-74
2022/01/16 10:35:54;;;;;;;1.50;1.43;;;6.40;99.90;;;;;;4992325;28;20812;-74
2022/01/16 10:38:24;;;;;;;1.93;1.83;;;6.60;99.90;;;;;;4992604;28;20451;-74
2022/01/16 10:40:50;;;;;;;1.97;1.77;;;6.50;99.90;;;;;;4993212;28;20920;-74
2022/01/16 10:43:21;;;;;;;5.23;4.13;;;6.50;99.90;;;;;;4991442;28;20780;-74
2022/01/16 10:45:51;;;;;;;1.70;1.60;;;6.60;99.90;;;;;;4977336;28;20492;-74
2022/01/16 10:48:24;;;;;;;1.53;1.43;;;6.70;99.90;;;;;;4992799;28;20424;-74
2022/01/16 10:50:51;;;;;;;7.67;1.70;;;6.70;99.90;;;;;;4973900;28;20428;-74
2022/01/16 10:53:19;;;;;;;3.80;3.13;;;6.70;99.90;;;;;;4992728;28;20417;-73
2022/01/16 10:55:57;;;;;;;1.63;1.10;;;6.60;99.90;;;;;;5033109;27;21117;-73
2022/01/16 10:58:50;;;;;;;1.87;1.77;;;6.50;99.90;;;;;;5044502;28;20437;-73
2022/01/16 11:01:16;;;;;;;0.67;0.60;;;6.40;99.90;;;;;;5026828;28;20433;-73
2022/01/16 11:03:47;;;;;;;5.60;2.60;;;6.30;99.90;;;;;;5024884;28;20419;-73
2022/01/16 11:06:14;;;;;;;3.23;3.03;;;6.10;99.90;;;;;;5025057;28;20461;-73
2022/01/16 11:08:39;;;;;;;3.50;2.20;;;6.10;99.90;;;;;;5028677;28;20977;-73
2022/01/16 11:11:07;;;;;;;1.53;1.43;;;6.10;99.90;;;;;;5020076;28;20418;-74
2022/01/16 11:13:35;;;;;;;2.50;2.40;;;6.10;99.90;;;;;;5024835;28;20422;-74
2022/01/16 11:16:10;;;;;;;2.03;1.93;;;6.10;99.90;;;;;;5025014;28;20823;-74
2022/01/16 11:18:38;;;;;;;0.63;0.60;;;6.20;99.90;;;;;;5024524;28;20839;-74
2022/01/16 11:26:10;;;;;;;2.10;2.00;;;6.10;99.90;;;;;;5025066;28;20442;-73
2022/01/16 11:28:37;;;;;;;0.60;0.50;;;6.20;99.90;;;;;;5024351;28;20423;-74
2022/01/16 11:31:05;;;;;;;2.20;2.10;;;6.20;99.90;;;;;;5024753;28;20525;-73
2022/01/16 11:33:33;;;;;;;1.17;1.17;;;6.40;99.90;;;;;;5023131;28;20414;-74
2022/01/16 11:36:04;;;;;;;1.83;1.27;;;6.40;99.90;;;;;;5024801;28;20804;-74
2022/01/16 11:38:32;;;;;;;9.30;1.47;;;6.40;99.90;;;;;;5024239;28;20418;-73
2022/01/16 11:41:13;;;;;;;6.67;6.17;;;6.40;99.90;;;;;;5025065;28;20518;-74
2022/01/16 11:43:40;;;;;;;1.40;1.27;;;6.50;99.90;;;;;;5024519;28;20903;-74
2022/01/16 11:46:10;;;;;;;3.00;2.80;;;6.60;99.90;;;;;;5024523;28;20442;-74
2022/01/16 11:48:41;;;;;;;1.00;1.00;;;6.70;99.90;;;;;;5024125;28;20925;-74
2022/01/16 11:51:36;;;;;;;3.77;3.57;;;6.90;99.90;;;;;;5023872;28;20425;-74
2022/01/16 11:54:02;;;;;;;1.60;1.50;;;7.00;99.90;;;;;;5024343;28;20458;-74
2022/01/16 11:56:42;;;;;;;2.93;1.53;;;6.90;99.90;;;;;;5023021;28;20453;-74
2022/01/16 11:59:21;;;;;;;1.97;1.63;;;7.10;99.90;;;;;;5024419;28;20202;-74
2022/01/16 12:02:08;;;;;;;0.80;0.80;;;7.30;99.90;;;;;;5024581;28;20446;-74
2022/01/16 12:04:33;;;;;;;4.97;4.77;;;7.50;99.90;;;;;;5024333;28;20454;-74
2022/01/16 12:07:15;;;;;;;3.20;3.00;;;7.70;99.90;;;;;;5012713;28;21001;-73
2022/01/16 12:12:39;;;;;;;1.73;1.63;;;8.10;99.90;;;;;;5044168;28;21372;-74
2022/01/16 12:15:19;;;;;;;3.03;1.80;;;8.00;99.90;;;;;;5010776;28;20455;-73
2022/01/16 12:17:49;;;;;;;3.23;3.07;;;7.90;99.90;;;;;;5011026;28;20192;-73
2022/01/16 12:20:18;;;;;;;12.00;1.63;;;8.00;99.90;;;;;;5009705;28;20419;-74
2022/01/16 12:23:05;;;;;;;2.50;1.20;;;8.10;99.90;;;;;;5009676;28;20591;-74
2022/01/16 12:25:39;;;;;;;1.57;1.47;;;8.10;99.90;;;;;;5010701;28;20837;-73
2022/01/16 12:28:06;;;;;;;11.03;1.73;;;8.00;99.90;;;;;;5010891;28;20459;-74
2022/01/16 12:30:38;;;;;;;2.23;2.10;;;7.80;99.90;;;;;;5010685;28;20923;-74
2022/01/16 12:33:15;;;;;;;2.27;1.07;;;7.60;99.90;;;;;;5010361;28;20423;-73
2022/01/16 12:35:41;;;;;;;2.70;2.60;;;7.60;99.90;;;;;;5008918;28;20473;-73
2022/01/16 12:38:11;;;;;;;2.33;1.90;;;7.70;99.90;;;;;;5009704;28;20424;-73
2022/01/16 12:40:44;;;;;;;1.37;1.27;;;7.80;99.90;;;;;;5010506;28;20251;-73
2022/01/16 12:43:16;;;;;;;1.33;1.33;;;8.00;99.90;;;;;;5010957;28;20514;-73
2022/01/16 12:45:43;;;;;;;2.10;2.00;;;8.00;99.90;;;;;;5010300;28;20424;-73
2022/01/16 12:48:09;;;;;;;3.90;2.40;;;8.10;99.90;;;;;;5009321;28;20434;-73
2022/01/16 12:50:37;;;;;;;1.70;1.60;;;7.90;99.90;;;;;;5010744;28;20419;-74
2022/01/16 12:53:03;;;;;;;1.23;1.07;;;7.70;99.90;;;;;;5010607;28;20427;-73
2022/01/16 12:55:31;;;;;;;1.43;1.33;;;7.60;99.90;;;;;;5009903;28;20545;-73
2022/01/16 12:58:21;;;;;;;0.90;0.90;;;7.50;99.90;;;;;;5010368;28;20877;-73
2022/01/16 13:01:04;;;;;;;0.90;0.90;;;7.30;99.90;;;;;;5009084;28;20415;-73
2022/01/16 13:03:33;;;;;;;2.63;1.73;;;7.30;99.90;;;;;;5008936;28;20450;-73
2022/01/16 13:06:20;;;;;;;0.80;0.80;;;7.30;99.90;;;;;;5010322;28;20992;-73
2022/01/16 13:09:09;;;;;;;2.30;1.67;;;7.20;99.90;;;;;;5023927;28;20927;-73
2022/01/16 13:11:37;;;;;;;1.27;1.27;;;7.30;99.90;;;;;;5010181;28;20506;-73
2022/01/16 13:14:23;;;;;;;0.73;0.73;;;7.20;99.90;;;;;;5010086;28;20511;-74
2022/01/16 13:17:00;;;;;;;0.70;0.60;;;7.20;99.90;;;;;;5010185;28;20798;-74
2022/01/16 13:19:28;;;;;;;0.70;0.60;;;7.40;99.90;;;;;;5009756;28;20430;-73
2022/01/16 13:22:12;;;;;;;1.73;1.63;;;7.30;99.90;;;;;;5010204;28;20433;-74
2022/01/16 13:24:56;;;;;;;0.90;0.90;;;7.20;99.90;;;;;;5009608;28;20418;-74
2022/01/16 13:27:26;;;;;;;0.90;0.90;;;7.10;99.90;;;;;;5009725;28;20439;-74
2022/01/16 13:29:56;;;;;;;0.67;0.57;;;7.00;99.90;;;;;;4998357;28;20411;-74
2022/01/16 13:32:33;;;;;;;1.07;0.97;;;7.00;99.90;;;;;;5046933;28;20918;-74
2022/01/16 13:35:00;;;;;;;1.43;1.33;;;7.00;99.90;;;;;;5113190;28;20453;-74
2022/01/16 13:37:36;;;;;;;0.90;0.90;;;7.20;99.90;;;;;;5105966;28;20414;-73
2022/01/16 13:40:11;;;;;;;0.77;0.77;;;7.20;99.90;;;;;;5010035;28;20741;-74
2022/01/16 13:42:41;;;;;;;0.67;0.60;;;7.20;99.90;;;;;;5008756;28;20514;-74
2022/01/16 13:45:22;;;;;;;1.33;1.23;;;7.10;99.90;;;;;;5070350;28;20476;-73
2022/01/16 13:48:11;;;;;;;2.87;2.20;;;7.10;99.90;;;;;;5113026;28;20462;-74
2022/01/16 13:50:49;;;;;;;0.70;0.60;;;7.00;99.90;;;;;;5035310;28;20826;-73
2022/01/16 13:53:21;;;;;;;1.00;0.80;;;6.90;99.90;;;;;;5027310;28;20418;-72